Time;durP1;ratioP1;P1;durP2;ratioP2;P2;SDS_P1;SDS_P2;PMS_P1;PMS_P2;Temp;Humidity;BMP_temperature;BMP_pressure;BME280_temperature;BME280_humidity;BME280_pressure;Samples;Min_cycle;Max_cycle;Signal;HPM_P1;HPM_P2
2023/05/28 00:00:56;;;;;;;5.53;4.57;;;;;;;;;;4946928;28;20739;-74
2023/05/28 00:03:23;;;;;;;6.13;4.47;;;;;;;;;;4944889;28;20221;-74
2023/05/28 00:05:49;;;;;;;5.27;4.37;;;;;;;;;;4951102;28;20219;-74
2023/05/28 00:08:15;;;;;;;6.67;4.70;;;;;;;;;;4941225;28;20600;-74
2023/05/28 00:10:42;;;;;;;9.70;4.20;;;;;;;;;;4960452;28;20225;-75
2023/05/28 00:13:08;;;;;;;6.23;4.27;;;;;;;;;;4958588;28;20225;-75
2023/05/28 00:15:39;;;;;;;5.23;4.43;;;;;;;;;;4960657;28;20244;-75
2023/05/28 00:18:05;;;;;;;4.73;4.23;;;;;;;;;;4944130;28;20622;-75
2023/05/28 00:20:33;;;;;;;6.17;4.57;;;;;;;;;;4944677;28;20219;-74
2023/05/28 00:23:00;;;;;;;7.00;4.47;;;;;;;;;;4990057;28;20221;-74
2023/05/28 00:25:26;;;;;;;4.97;4.40;;;;;;;;;;4950694;28;20221;-74
2023/05/28 00:27:59;;;;;;;5.73;4.47;;;;;;;;;;4990980;28;20677;-74
2023/05/28 00:30:24;;;;;;;5.27;4.37;;;;;;;;;;4930432;28;20229;-74
2023/05/28 00:32:54;;;;;;;5.67;4.50;;;;;;;;;;4947936;28;20436;-74
2023/05/28 00:35:23;;;;;;;5.10;4.57;;;;;;;;;;4958531;28;20222;-73
2023/05/28 00:37:48;;;;;;;5.77;4.40;;;;;;;;;;4959232;28;20215;-74
2023/05/28 00:40:17;;;;;;;7.43;4.87;;;;;;;;;;4947385;28;20222;-74
2023/05/28 00:42:44;;;;;;;6.10;4.60;;;;;;;;;;4960461;28;20795;-74
2023/05/28 00:45:12;;;;;;;5.80;4.50;;;;;;;;;;4953504;28;20302;-74
2023/05/28 00:47:45;;;;;;;5.23;4.47;;;;;;;;;;4949632;28;20229;-74
2023/05/28 00:50:16;;;;;;;7.87;4.73;;;;;;;;;;4935466;28;20210;-74
2023/05/28 00:52:42;;;;;;;7.30;4.83;;;;;;;;;;4969281;28;20242;-74
2023/05/28 00:55:16;;;;;;;5.77;4.77;;;;;;;;;;4935275;28;20723;-74
2023/05/28 00:57:45;;;;;;;5.90;4.87;;;;;;;;;;4998272;28;20252;-73
2023/05/28 01:00:13;;;;;;;4.70;4.20;;;;;;;;;;4954392;28;20223;-74
2023/05/28 01:02:41;;;;;;;6.73;4.83;;;;;;;;;;4939226;28;20230;-74
2023/05/28 01:05:08;;;;;;;5.00;4.50;;;;;;;;;;4960935;28;20266;-75
2023/05/28 01:07:33;;;;;;;5.67;4.80;;;;;;;;;;4939590;28;20229;-75
2023/05/28 01:10:02;;;;;;;6.37;4.37;;;;;;;;;;4955534;28;20215;-74
2023/05/28 01:12:32;;;;;;;5.23;4.40;;;;;;;;;;4925270;28;20638;-74
2023/05/28 01:15:02;;;;;;;5.73;4.70;;;;;;;;;;4953870;28;20219;-74
2023/05/28 01:17:30;;;;;;;5.40;4.60;;;;;;;;;;4946691;28;20225;-74
2023/05/28 01:20:10;;;;;;;5.77;4.43;;;;;;;;;;4943673;28;20215;-75
2023/05/28 01:22:39;;;;;;;5.83;4.17;;;;;;;;;;4925285;28;20330;-74
2023/05/28 01:25:09;;;;;;;5.30;4.70;;;;;;;;;;4944657;28;20735;-76
2023/05/28 01:27:41;;;;;;;5.27;4.60;;;;;;;;;;4948046;28;20650;-74
2023/05/28 01:30:11;;;;;;;6.13;4.83;;;;;;;;;;4944639;28;20226;-73
2023/05/28 01:32:40;;;;;;;4.67;4.17;;;;;;;;;;4953204;28;20314;-74
2023/05/28 01:35:08;;;;;;;7.30;4.83;;;;;;;;;;4937123;28;20633;-74
2023/05/28 01:37:37;;;;;;;8.23;4.87;;;;;;;;;;4979212;28;20512;-74
2023/05/28 01:40:06;;;;;;;6.33;4.30;;;;;;;;;;4935674;28;20661;-74
2023/05/28 01:42:34;;;;;;;5.53;4.20;;;;;;;;;;4954339;28;20234;-73
2023/05/28 01:45:00;;;;;;;6.67;4.10;;;;;;;;;;4935933;28;20211;-74
2023/05/28 01:47:34;;;;;;;4.80;4.30;;;;;;;;;;4969674;28;20230;-74
2023/05/28 01:49:59;;;;;;;4.60;4.20;;;;;;;;;;4912645;28;20306;-74
2023/05/28 01:52:27;;;;;;;6.87;4.60;;;;;;;;;;4946238;28;20218;-74
2023/05/28 01:54:57;;;;;;;5.57;4.30;;;;;;;;;;4937568;28;20752;-74
2023/05/28 01:57:23;;;;;;;5.00;4.50;;;;;;;;;;4946265;28;20227;-74
2023/05/28 01:59:48;;;;;;;5.67;4.50;;;;;;;;;;4953297;28;20214;-73
2023/05/28 02:02:15;;;;;;;5.47;4.63;;;;;;;;;;4949462;28;20317;-74
2023/05/28 02:04:43;;;;;;;6.63;4.37;;;;;;;;;;4935356;28;20226;-74
2023/05/28 02:07:13;;;;;;;5.53;4.33;;;;;;;;;;4936695;28;20305;-74
2023/05/28 02:09:41;;;;;;;4.97;4.33;;;;;;;;;;4952796;28;20223;-74
2023/05/28 02:12:08;;;;;;;4.30;3.70;;;;;;;;;;4943864;28;20215;-75
2023/05/28 02:14:36;;;;;;;5.47;4.53;;;;;;;;;;4974761;28;20219;-74
2023/05/28 02:17:02;;;;;;;6.57;4.10;;;;;;;;;;4938049;28;20321;-74
2023/05/28 02:19:30;;;;;;;6.33;4.40;;;;;;;;;;4963366;28;20685;-74
2023/05/28 02:21:58;;;;;;;5.10;4.60;;;;;;;;;;4952255;28;20242;-74
2023/05/28 02:24:25;;;;;;;6.37;4.80;;;;;;;;;;4990412;28;20215;-74
2023/05/28 02:26:53;;;;;;;5.37;4.40;;;;;;;;;;4952704;28;20225;-74
2023/05/28 02:29:19;;;;;;;5.17;4.00;;;;;;;;;;4975849;28;20242;-74
2023/05/28 02:31:51;;;;;;;4.67;4.20;;;;;;;;;;4935192;28;20313;-74
2023/05/28 02:34:18;;;;;;;4.53;4.10;;;;;;;;;;4975745;28;20735;-73
2023/05/28 02:36:46;;;;;;;5.50;4.37;;;;;;;;;;4961416;28;20229;-74
2023/05/28 02:39:13;;;;;;;4.57;4.17;;;;;;;;;;4949547;28;20218;-74
2023/05/28 02:41:41;;;;;;;4.87;4.00;;;;;;;;;;4933039;28;20258;-73
2023/05/28 02:44:06;;;;;;;5.63;4.13;;;;;;;;;;4936617;28;20589;-74
2023/05/28 02:46:37;;;;;;;5.20;4.33;;;;;;;;;;4952004;28;20210;-75
2023/05/28 02:49:03;;;;;;;5.40;4.27;;;;;;;;;;4929301;28;20214;-75
2023/05/28 02:51:33;;;;;;;4.27;3.80;;;;;;;;;;4928515;28;20718;-74
2023/05/28 02:54:07;;;;;;;5.73;4.10;;;;;;;;;;4942085;28;20301;-74
2023/05/28 02:56:35;;;;;;;4.67;4.17;;;;;;;;;;4963150;28;20218;-74
2023/05/28 02:59:03;;;;;;;4.83;3.83;;;;;;;;;;4949154;28;20273;-74
2023/05/28 03:01:33;;;;;;;6.13;4.10;;;;;;;;;;4974901;28;20257;-74
2023/05/28 03:04:01;;;;;;;6.03;4.13;;;;;;;;;;4948744;28;20325;-73
2023/05/28 03:06:29;;;;;;;4.57;4.17;;;;;;;;;;4951445;28;20253;-74
2023/05/28 03:08:56;;;;;;;6.63;4.40;;;;;;;;;;4937097;28;20296;-74
2023/05/28 03:11:22;;;;;;;4.80;4.00;;;;;;;;;;4974548;28;21355;-74
2023/05/28 03:13:52;;;;;;;4.90;4.20;;;;;;;;;;4937220;28;20210;-74
2023/05/28 03:16:24;;;;;;;5.63;3.93;;;;;;;;;;4950497;28;20218;-73
2023/05/28 03:18:51;;;;;;;4.60;4.10;;;;;;;;;;4966376;28;20251;-74
2023/05/28 03:21:20;;;;;;;4.67;4.00;;;;;;;;;;4935538;28;20254;-74
2023/05/28 03:23:48;;;;;;;5.83;4.50;;;;;;;;;;4937740;28;20241;-73
2023/05/28 03:26:27;;;;;;;6.17;4.50;;;;;;;;;;4937613;28;20210;-73
2023/05/28 03:28:54;;;;;;;6.17;4.67;;;;;;;;;;4943290;28;20219;-74
2023/05/28 03:31:27;;;;;;;5.07;4.17;;;;;;;;;;4961274;28;20630;-73
2023/05/28 03:33:53;;;;;;;5.83;4.70;;;;;;;;;;4936045;28;20223;-74
2023/05/28 03:36:19;;;;;;;5.53;4.43;;;;;;;;;;4946081;28;20219;-74
2023/05/28 03:38:47;;;;;;;5.43;4.30;;;;;;;;;;4932642;28;20233;-74
2023/05/28 03:41:17;;;;;;;5.37;4.13;;;;;;;;;;4945174;28;20353;-74
2023/05/28 03:43:43;;;;;;;5.90;4.30;;;;;;;;;;4951298;28;20313;-74
2023/05/28 03:46:13;;;;;;;4.70;4.20;;;;;;;;;;4931478;28;20221;-73
2023/05/28 03:48:43;;;;;;;5.07;4.30;;;;;;;;;;4966882;28;20237;-73
2023/05/28 03:51:09;;;;;;;4.47;4.07;;;;;;;;;;5017479;23;20221;-79
2023/05/28 03:53:35;;;;;;;6.10;4.33;;;;;;;;;;4980219;28;20223;-79
2023/05/28 03:56:01;;;;;;;4.87;4.00;;;;;;;;;;4996497;28;20209;-78
2023/05/28 03:58:28;;;;;;;5.27;4.03;;;;;;;;;;5018911;28;20711;-81
2023/05/28 04:00:54;;;;;;;5.83;4.10;;;;;;;;;;4997731;28;20216;-81
2023/05/28 04:03:23;;;;;;;4.97;4.33;;;;;;;;;;5002934;28;20242;-81
2023/05/28 04:05:49;;;;;;;5.63;4.23;;;;;;;;;;5027044;28;20220;-81
2023/05/28 04:08:15;;;;;;;6.00;3.90;;;;;;;;;;5012133;28;20274;-80
2023/05/28 04:10:46;;;;;;;5.77;4.10;;;;;;;;;;5015477;28;20211;-81
2023/05/28 04:13:11;;;;;;;5.10;3.63;;;;;;;;;;5023137;28;20312;-80
2023/05/28 04:15:37;;;;;;;4.77;4.03;;;;;;;;;;5015188;28;20704;-81
2023/05/28 04:18:02;;;;;;;4.83;4.03;;;;;;;;;;4991609;28;20216;-81
2023/05/28 04:20:30;;;;;;;4.80;4.40;;;;;;;;;;5005727;28;20219;-80
2023/05/28 04:23:16;;;;;;;5.70;4.30;;;;;;;;;;4992563;28;20796;-81
2023/05/28 04:25:44;;;;;;;6.20;4.13;;;;;;;;;;5026532;28;20601;-81
2023/05/28 04:28:11;;;;;;;4.43;4.03;;;;;;;;;;5019477;28;20247;-80
2023/05/28 04:30:39;;;;;;;4.60;4.10;;;;;;;;;;5024342;28;20220;-79
2023/05/28 04:33:06;;;;;;;7.17;4.17;;;;;;;;;;5021279;28;20209;-81
2023/05/28 04:35:34;;;;;;;5.37;4.10;;;;;;;;;;5024911;28;20227;-79
2023/05/28 04:38:00;;;;;;;5.60;4.40;;;;;;;;;;5041607;28;20220;-79
2023/05/28 04:40:28;;;;;;;5.47;4.50;;;;;;;;;;5025464;28;20227;-78
2023/05/28 04:42:57;;;;;;;5.90;4.47;;;;;;;;;;5001248;28;20221;-81
2023/05/28 04:45:34;;;;;;;6.40;4.20;;;;;;;;;;5017205;28;20226;-80
2023/05/28 04:48:02;;;;;;;4.53;4.13;;;;;;;;;;4992577;28;20250;-80
2023/05/28 04:50:28;;;;;;;4.50;4.10;;;;;;;;;;4999936;28;20221;-81
2023/05/28 04:52:56;;;;;;;5.40;4.50;;;;;;;;;;5002559;28;20227;-80
2023/05/28 04:55:23;;;;;;;6.77;5.00;;;;;;;;;;5014966;28;20231;-81
2023/05/28 04:57:49;;;;;;;5.47;4.30;;;;;;;;;;4996344;28;20216;-80
2023/05/28 05:00:18;;;;;;;5.17;4.67;;;;;;;;;;5019198;28;20220;-80
2023/05/28 05:02:44;;;;;;;6.03;4.60;;;;;;;;;;5007314;28;20220;-79
2023/05/28 05:05:10;;;;;;;6.03;4.40;;;;;;;;;;4999533;28;20226;-79
2023/05/28 05:07:38;;;;;;;6.67;4.70;;;;;;;;;;5001220;28;20234;-81
2023/05/28 05:10:08;;;;;;;5.60;4.53;;;;;;;;;;4997845;28;20276;-80
2023/05/28 05:12:38;;;;;;;6.07;4.80;;;;;;;;;;5018079;28;20220;-79
2023/05/28 05:15:07;;;;;;;4.87;4.37;;;;;;;;;;5003800;28;20231;-83
2023/05/28 05:17:35;;;;;;;6.37;4.70;;;;;;;;;;5004058;28;20255;-79
2023/05/28 05:20:04;;;;;;;6.67;4.70;;;;;;;;;;5001400;28;20212;-79
2023/05/28 05:22:35;;;;;;;6.87;4.80;;;;;;;;;;5005917;28;20254;-80
2023/05/28 05:25:08;;;;;;;6.93;4.93;;;;;;;;;;5035853;28;20224;-80
2023/05/28 05:27:39;;;;;;;8.40;4.27;;;;;;;;;;4994647;28;20630;-80
2023/05/28 05:30:08;;;;;;;5.03;4.20;;;;;;;;;;5018799;28;20221;-80
2023/05/28 05:32:33;;;;;;;7.93;4.87;;;;;;;;;;4985378;28;20220;-79
2023/05/28 05:35:04;;;;;;;7.03;4.30;;;;;;;;;;5018120;28;20705;-80
2023/05/28 05:37:48;;;;;;;7.03;4.30;;;;;;;;;;5019318;28;20246;-78
2023/05/28 05:40:23;;;;;;;4.67;4.20;;;;;;;;;;5020449;28;20667;-78
2023/05/28 05:43:12;;;;;;;4.95;3.70;;;;;;;;;;5023665;28;20216;-79
2023/05/28 05:45:40;;;;;;;4.55;3.88;;;;;;;;;;5020435;28;20270;-80
2023/05/28 05:48:09;;;;;;;5.27;3.90;;;;;;;;;;5001768;28;20220;-79
2023/05/28 05:50:47;;;;;;;4.38;3.97;;;;;;;;;;5000318;28;20240;-79
2023/05/28 05:53:13;;;;;;;7.37;3.43;;;;;;;;;;5036002;28;20222;-80
2023/05/28 05:55:41;;;;;;;5.30;3.40;;;;;;;;;;5016948;28;20228;-81
2023/05/28 05:58:07;;;;;;;4.80;3.53;;;;;;;;;;5018829;28;20286;-80
2023/05/28 06:00:33;;;;;;;6.00;3.15;;;;;;;;;;5005524;28;20224;-80
2023/05/28 06:03:00;;;;;;;4.60;3.28;;;;;;;;;;5003519;28;20252;-81
2023/05/28 06:05:44;;;;;;;4.00;3.33;;;;;;;;;;5021099;28;20268;-81
2023/05/28 06:08:35;;;;;;;4.97;3.67;;;;;;;;;;5001425;28;20224;-82
2023/05/28 06:11:13;;;;;;;4.80;3.65;;;;;;;;;;5020286;28;20219;-80
2023/05/28 06:13:41;;;;;;;5.80;3.47;;;;;;;;;;5004781;28;20254;-79
2023/05/28 06:16:07;;;;;;;4.40;3.58;;;;;;;;;;5005171;28;20215;-80
2023/05/28 06:18:35;;;;;;;4.63;3.20;;;;;;;;;;4987676;28;20323;-80
2023/05/28 06:21:03;;;;;;;4.57;3.33;;;;;;;;;;5019903;28;20317;-79
2023/05/28 06:23:29;;;;;;;5.70;3.03;;;;;;;;;;5003053;28;20208;-80
2023/05/28 06:25:58;;;;;;;4.80;3.08;;;;;;;;;;5006944;28;20220;-77
2023/05/28 06:28:23;;;;;;;3.83;3.25;;;;;;;;;;5029696;28;20359;-78
2023/05/28 06:30:49;;;;;;;4.03;3.08;;;;;;;;;;5016906;28;20220;-79
2023/05/28 06:33:15;;;;;;;4.50;3.33;;;;;;;;;;5016192;28;20650;-79
2023/05/28 06:35:40;;;;;;;4.95;2.92;;;;;;;;;;5002026;28;20330;-79
2023/05/28 06:38:08;;;;;;;3.58;2.95;;;;;;;;;;5018718;28;20216;-80
2023/05/28 06:40:43;;;;;;;3.17;2.88;;;;;;;;;;5021185;28;20326;-80
2023/05/28 06:43:09;;;;;;;3.38;2.80;;;;;;;;;;5011334;28;20224;-80
2023/05/28 06:46:13;;;;;;;5.32;2.97;;;;;;;;;;5015125;28;20211;-79
2023/05/28 06:48:41;;;;;;;2.80;2.42;;;;;;;;;;5008314;28;20228;-80
2023/05/28 06:51:11;;;;;;;3.83;2.40;;;;;;;;;;5017896;28;20628;-81
2023/05/28 06:53:37;;;;;;;3.40;2.70;;;;;;;;;;5013924;28;20227;-79
2023/05/28 06:56:06;;;;;;;3.13;2.78;;;;;;;;;;5000171;28;20220;-80
2023/05/28 06:58:43;;;;;;;4.72;2.33;;;;;;;;;;5034794;28;20283;-81
2023/05/28 07:01:21;;;;;;;2.58;2.20;;;;;;;;;;5004193;28;20227;-80
2023/05/28 07:04:09;;;;;;;5.80;2.13;;;;;;;;;;5034952;28;20282;-81
2023/05/28 07:06:43;;;;;;;3.75;2.60;;;;;;;;;;5012151;28;20229;-80
2023/05/28 07:09:14;;;;;;;3.25;2.42;;;;;;;;;;4979730;28;20227;-80
2023/05/28 07:11:50;;;;;;;3.60;2.33;;;;;;;;;;5002673;28;20758;-80
2023/05/28 07:14:19;;;;;;;2.67;2.17;;;;;;;;;;5021976;28;20224;-80
2023/05/28 07:16:45;;;;;;;4.50;2.50;;;;;;;;;;4980392;28;20216;-80
2023/05/28 07:19:13;;;;;;;2.65;2.28;;;;;;;;;;5012101;28;20243;-80
2023/05/28 07:21:41;;;;;;;2.20;1.85;;;;;;;;;;4996250;28;20702;-77
2023/05/28 07:24:08;;;;;;;2.70;2.05;;;;;;;;;;4996251;28;20215;-80
2023/05/28 07:26:35;;;;;;;2.38;2.03;;;;;;;;;;5006113;28;20286;-81
2023/05/28 07:29:02;;;;;;;2.55;2.35;;;;;;;;;;4994441;28;20221;-80
2023/05/28 07:31:32;;;;;;;3.08;2.28;;;;;;;;;;5008708;28;20283;-81
2023/05/28 07:34:00;;;;;;;2.75;2.42;;;;;;;;;;5020950;28;20251;-81
2023/05/28 07:36:33;;;;;;;3.33;2.35;;;;;;;;;;5009301;28;20293;-81
2023/05/28 07:38:58;;;;;;;2.80;2.50;;;;;;;;;;5001623;28;20224;-82
2023/05/28 07:41:25;;;;;;;3.55;2.33;;;;;;;;;;4994289;28;20731;-79
2023/05/28 07:44:15;;;;;;;3.42;2.22;;;;;;;;;;5009434;28;20243;-79
2023/05/28 07:46:40;;;;;;;3.17;2.20;;;;;;;;;;4989402;28;20246;-79
2023/05/28 07:49:16;;;;;;;3.53;2.45;;;;;;;;;;5016354;28;20433;-84
2023/05/28 07:51:47;;;;;;;2.65;2.22;;;;;;;;;;5007725;28;20215;-83
2023/05/28 07:54:19;;;;;;;4.65;2.30;;;;;;;;;;5031995;28;20223;-83
2023/05/28 07:56:48;;;;;;;3.28;2.17;;;;;;;;;;5019612;28;20218;-83
2023/05/28 07:59:24;;;;;;;2.78;2.25;;;;;;;;;;5015137;28;20222;-81
2023/05/28 08:01:53;;;;;;;5.75;2.50;;;;;;;;;;5016675;28;20232;-80
2023/05/28 08:04:22;;;;;;;2.90;2.10;;;;;;;;;;5008039;28;20876;-83
2023/05/28 08:06:54;;;;;;;2.40;2.17;;;;;;;;;;5015100;28;20216;-80
2023/05/28 08:09:22;;;;;;;2.95;2.20;;;;;;;;;;5001790;28;20716;-82
2023/05/28 08:11:51;;;;;;;5.20;2.72;;;;;;;;;;5016490;28;20303;-82
2023/05/28 08:14:18;;;;;;;4.20;2.25;;;;;;;;;;5022563;28;20713;-80
2023/05/28 08:16:46;;;;;;;3.15;2.30;;;;;;;;;;5004472;28;20219;-82
2023/05/28 08:19:27;;;;;;;3.47;2.13;;;;;;;;;;5002573;28;20220;-82
2023/05/28 08:21:59;;;;;;;3.38;2.15;;;;;;;;;;5027901;28;20616;-81
2023/05/28 08:24:27;;;;;;;4.15;2.22;;;;;;;;;;5015045;28;20300;-81
2023/05/28 08:26:53;;;;;;;3.45;2.00;;;;;;;;;;5000173;28;20224;-80
2023/05/28 08:29:21;;;;;;;2.47;2.00;;;;;;;;;;5018866;28;20227;-83
2023/05/28 08:31:54;;;;;;;3.30;2.15;;;;;;;;;;5002325;28;20226;-81
2023/05/28 08:34:25;;;;;;;3.03;2.38;;;;;;;;;;4986114;28;20217;-81
2023/05/28 08:36:54;;;;;;;3.95;2.35;;;;;;;;;;4983306;28;20219;-81
2023/05/28 08:39:27;;;;;;;3.33;2.15;;;;;;;;;;5032581;28;20231;-83
2023/05/28 08:41:53;;;;;;;2.97;2.13;;;;;;;;;;5005246;28;20233;-81
2023/05/28 08:44:19;;;;;;;2.83;1.98;;;;;;;;;;5017181;28;20221;-81
2023/05/28 08:46:45;;;;;;;2.60;2.00;;;;;;;;;;5001425;28;20221;-81
2023/05/28 08:49:41;;;;;;;3.05;2.33;;;;;;;;;;5015493;28;20734;-81
2023/05/28 08:52:10;;;;;;;4.60;2.50;;;;;;;;;;4998445;28;20230;-82
2023/05/28 08:54:39;;;;;;;3.90;2.40;;;;;;;;;;5006825;28;20232;-82
2023/05/28 08:57:05;;;;;;;2.90;2.17;;;;;;;;;;5015812;28;20219;-82
2023/05/28 08:59:38;;;;;;;3.53;2.50;;;;;;;;;;5031798;28;20216;-81
2023/05/28 09:02:04;;;;;;;3.33;2.33;;;;;;;;;;4999444;28;20561;-77
2023/05/28 09:04:30;;;;;;;4.10;2.40;;;;;;;;;;5011239;28;20720;-78
2023/05/28 09:06:56;;;;;;;3.22;2.50;;;;;;;;;;5015356;28;20213;-79
2023/05/28 09:09:29;;;;;;;3.65;2.40;;;;;;;;;;4998188;28;20300;-78
2023/05/28 09:12:08;;;;;;;3.30;2.30;;;;;;;;;;4996278;28;20682;-80
2023/05/28 09:14:41;;;;;;;4.07;2.30;;;;;;;;;;5010772;28;20344;-82
2023/05/28 09:17:13;;;;;;;3.17;2.28;;;;;;;;;;5010374;28;20229;-78
2023/05/28 09:19:50;;;;;;;2.55;2.30;;;;;;;;;;5032347;28;20223;-77
2023/05/28 09:22:16;;;;;;;3.88;2.58;;;;;;;;;;5011942;28;21180;-79
2023/05/28 09:24:54;;;;;;;3.90;2.40;;;;;;;;;;5000727;28;20311;-79
2023/05/28 09:27:35;;;;;;;2.72;2.42;;;;;;;;;;5001337;28;20212;-78
2023/05/28 09:30:07;;;;;;;2.40;2.05;;;;;;;;;;5019830;28;20269;-79
2023/05/28 09:32:34;;;;;;;4.00;2.28;;;;;;;;;;4995088;28;20248;-78
2023/05/28 09:35:00;;;;;;;5.43;2.60;;;;;;;;;;4995281;28;20223;-79
2023/05/28 09:37:30;;;;;;;3.85;2.60;;;;;;;;;;4995871;28;20376;-78
2023/05/28 09:40:08;;;;;;;2.92;2.45;;;;;;;;;;5011279;28;20262;-79
2023/05/28 09:42:43;;;;;;;5.80;2.78;;;;;;;;;;5003928;28;20366;-78
2023/05/28 09:45:23;;;;;;;6.88;2.60;;;;;;;;;;5012898;28;20239;-78
2023/05/28 09:47:48;;;;;;;4.72;2.45;;;;;;;;;;5010112;28;20235;-80
2023/05/28 09:50:14;;;;;;;3.70;2.28;;;;;;;;;;4995574;28;20649;-77
2023/05/28 09:52:40;;;;;;;5.05;2.50;;;;;;;;;;5029619;28;20220;-78
2023/05/28 09:55:06;;;;;;;5.22;2.70;;;;;;;;;;4993855;28;20579;-81
2023/05/28 09:57:32;;;;;;;3.83;2.50;;;;;;;;;;5018863;28;20723;-77
2023/05/28 09:59:59;;;;;;;2.72;2.15;;;;;;;;;;5011895;28;20216;-79
2023/05/28 10:02:40;;;;;;;5.75;2.70;;;;;;;;;;5010472;28;20224;-80
2023/05/28 10:05:06;;;;;;;4.63;2.35;;;;;;;;;;5023676;28;20227;-80
2023/05/28 10:07:34;;;;;;;3.55;2.63;;;;;;;;;;5029459;28;20379;-79
2023/05/28 10:10:02;;;;;;;3.47;2.53;;;;;;;;;;5011458;28;20689;-80
2023/05/28 10:12:28;;;;;;;2.95;2.17;;;;;;;;;;5010980;28;20723;-80
2023/05/28 10:14:54;;;;;;;3.30;2.40;;;;;;;;;;5010049;28;20224;-78
2023/05/28 10:17:23;;;;;;;3.80;2.65;;;;;;;;;;4996789;28;20884;-80
2023/05/28 10:19:48;;;;;;;3.40;2.35;;;;;;;;;;4995262;28;20251;-80
2023/05/28 10:22:15;;;;;;;3.20;2.40;;;;;;;;;;5010872;28;20658;-78
2023/05/28 10:24:42;;;;;;;2.67;2.25;;;;;;;;;;5013715;28;20224;-79
2023/05/28 10:27:12;;;;;;;3.65;2.60;;;;;;;;;;5012217;28;20618;-81
2023/05/28 10:29:42;;;;;;;4.78;2.78;;;;;;;;;;5012977;28;20251;-79
2023/05/28 10:32:08;;;;;;;4.15;2.53;;;;;;;;;;5010435;28;20217;-79
2023/05/28 10:34:35;;;;;;;4.03;2.55;;;;;;;;;;4995435;28;20290;-80
2023/05/28 10:37:09;;;;;;;3.20;2.58;;;;;;;;;;5012887;28;20315;-81
2023/05/28 10:39:41;;;;;;;5.18;2.53;;;;;;;;;;4993528;28;20216;-80
2023/05/28 10:42:13;;;;;;;2.60;2.30;;;;;;;;;;5009180;28;20306;-79
2023/05/28 10:44:54;;;;;;;4.00;2.40;;;;;;;;;;5015229;28;20248;-79
2023/05/28 10:47:23;;;;;;;3.15;2.53;;;;;;;;;;5032895;28;20243;-80
2023/05/28 10:50:18;;;;;;;3.83;2.28;;;;;;;;;;5004069;28;20314;-80
2023/05/28 10:53:06;;;;;;;4.88;2.45;;;;;;;;;;5029460;28;20227;-81
2023/05/28 10:55:56;;;;;;;4.45;2.58;;;;;;;;;;5006809;28;20241;-79
2023/05/28 10:58:34;;;;;;;3.72;2.53;;;;;;;;;;5014866;28;20220;-81
2023/05/28 11:01:20;;;;;;;3.83;2.40;;;;;;;;;;5015531;28;20227;-82
2023/05/28 11:03:54;;;;;;;4.07;2.47;;;;;;;;;;5032410;28;20252;-79
2023/05/28 11:06:20;;;;;;;3.65;2.40;;;;;;;;;;5025950;28;20551;-80
2023/05/28 11:08:48;;;;;;;4.50;2.40;;;;;;;;;;5002573;28;20219;-80
2023/05/28 11:11:17;;;;;;;5.80;2.38;;;;;;;;;;5016131;28;20212;-80
2023/05/28 11:13:45;;;;;;;2.88;2.17;;;;;;;;;;5017317;28;20304;-80
2023/05/28 11:16:12;;;;;;;5.20;2.63;;;;;;;;;;5015027;28;20220;-81
2023/05/28 11:18:37;;;;;;;3.15;2.17;;;;;;;;;;5027679;28;20705;-78
2023/05/28 11:21:11;;;;;;;3.65;2.38;;;;;;;;;;4996132;28;20269;-80
2023/05/28 11:23:37;;;;;;;5.00;2.38;;;;;;;;;;5015440;28;20216;-80
2023/05/28 11:26:03;;;;;;;4.25;2.60;;;;;;;;;;5004733;28;20220;-81
2023/05/28 11:28:29;;;;;;;3.85;2.40;;;;;;;;;;5022018;28;20677;-81
2023/05/28 11:31:00;;;;;;;4.88;2.55;;;;;;;;;;4998542;28;20243;-80
2023/05/28 11:33:29;;;;;;;3.90;2.70;;;;;;;;;;4980704;28;20224;-80
2023/05/28 11:35:58;;;;;;;3.40;2.67;;;;;;;;;;5000315;28;20280;-78
2023/05/28 11:38:24;;;;;;;3.58;2.50;;;;;;;;;;5019465;28;20235;-78
2023/05/28 11:40:49;;;;;;;5.10;2.55;;;;;;;;;;5021068;28;20212;-79
2023/05/28 11:43:15;;;;;;;3.53;2.42;;;;;;;;;;5043705;28;20223;-80
2023/05/28 11:45:41;;;;;;;4.68;2.95;;;;;;;;;;4995086;28;20323;-80
2023/05/28 11:48:13;;;;;;;3.25;2.58;;;;;;;;;;5012283;28;20220;-81
2023/05/28 11:50:38;;;;;;;3.50;2.63;;;;;;;;;;5015820;28;20231;-80
2023/05/28 11:53:04;;;;;;;5.18;2.80;;;;;;;;;;4996024;28;20217;-80
2023/05/28 11:55:29;;;;;;;3.88;2.67;;;;;;;;;;5014300;28;20716;-82
2023/05/28 11:57:57;;;;;;;3.58;2.50;;;;;;;;;;5019409;28;20222;-79
2023/05/28 12:00:33;;;;;;;5.75;3.10;;;;;;;;;;5004323;28;20217;-80
2023/05/28 12:02:59;;;;;;;4.75;3.15;;;;;;;;;;5025354;28;20227;-81
2023/05/28 12:05:24;;;;;;;3.50;2.80;;;;;;;;;;5000897;28;20220;-81
2023/05/28 12:07:52;;;;;;;4.93;2.83;;;;;;;;;;5016068;28;20258;-80
2023/05/28 12:10:20;;;;;;;4.78;2.90;;;;;;;;;;4995586;28;20282;-81
2023/05/28 12:12:55;;;;;;;3.47;2.65;;;;;;;;;;5015311;28;20285;-79
2023/05/28 12:15:24;;;;;;;4.65;3.10;;;;;;;;;;4997848;28;20224;-79
2023/05/28 12:17:55;;;;;;;4.93;2.80;;;;;;;;;;4999668;28;20227;-79
2023/05/28 12:20:20;;;;;;;4.05;2.63;;;;;;;;;;4999699;28;20231;-80
2023/05/28 12:22:46;;;;;;;7.20;3.25;;;;;;;;;;5034887;28;20223;-79
2023/05/28 12:25:12;;;;;;;4.47;3.00;;;;;;;;;;5016404;28;20227;-82
2023/05/28 12:27:40;;;;;;;5.13;2.70;;;;;;;;;;5026414;28;20227;-79
2023/05/28 12:30:06;;;;;;;4.22;2.78;;;;;;;;;;5051547;28;20685;-81
2023/05/28 12:32:34;;;;;;;3.83;2.90;;;;;;;;;;5023331;28;20231;-83
2023/05/28 12:34:59;;;;;;;4.30;2.92;;;;;;;;;;5006238;28;20219;-80
2023/05/28 12:37:25;;;;;;;5.53;3.20;;;;;;;;;;5018020;28;20566;-82
2023/05/28 12:39:53;;;;;;;4.20;3.00;;;;;;;;;;5003893;28;20220;-80
2023/05/28 12:42:20;;;;;;;4.10;3.05;;;;;;;;;;5023946;28;20240;-78
2023/05/28 12:44:46;;;;;;;5.90;3.15;;;;;;;;;;5026854;28;20234;-81
2023/05/28 12:47:12;;;;;;;5.05;2.80;;;;;;;;;;5001985;28;20216;-82
2023/05/28 12:49:37;;;;;;;4.75;3.13;;;;;;;;;;5039696;28;20234;-81
2023/05/28 12:52:03;;;;;;;5.45;3.53;;;;;;;;;;5022836;28;20216;-81
2023/05/28 12:54:28;;;;;;;4.88;3.17;;;;;;;;;;5021083;28;20227;-82
2023/05/28 12:56:54;;;;;;;3.30;2.90;;;;;;;;;;5035959;28;20220;-80
2023/05/28 12:59:28;;;;;;;5.72;3.03;;;;;;;;;;5020881;28;20224;-81
2023/05/28 13:01:56;;;;;;;5.07;3.00;;;;;;;;;;5021635;28;20227;-80
2023/05/28 13:04:22;;;;;;;4.68;2.67;;;;;;;;;;5021977;28;20292;-80
2023/05/28 13:06:47;;;;;;;5.45;3.00;;;;;;;;;;5016256;28;20228;-80
2023/05/28 13:09:14;;;;;;;4.00;3.08;;;;;;;;;;5001973;28;20227;-80
2023/05/28 13:11:41;;;;;;;3.33;2.83;;;;;;;;;;5015580;28;20229;-80
2023/05/28 13:14:09;;;;;;;3.85;3.08;;;;;;;;;;4989673;28;20647;-79
2023/05/28 13:16:37;;;;;;;5.03;2.60;;;;;;;;;;5026226;28;20231;-80
2023/05/28 13:19:05;;;;;;;6.68;3.20;;;;;;;;;;5023847;28;20224;-81
2023/05/28 13:21:32;;;;;;;4.93;2.97;;;;;;;;;;5036579;28;20224;-81
2023/05/28 13:24:00;;;;;;;5.85;3.20;;;;;;;;;;5016059;28;20239;-81
2023/05/28 13:26:26;;;;;;;5.45;2.85;;;;;;;;;;5004033;28;20652;-79
2023/05/28 13:28:54;;;;;;;4.45;3.08;;;;;;;;;;5020402;28;20266;-80
2023/05/28 13:31:20;;;;;;;7.00;3.38;;;;;;;;;;5017388;28;20763;-83
2023/05/28 13:33:45;;;;;;;4.40;3.38;;;;;;;;;;5020043;28;20275;-83
2023/05/28 13:36:11;;;;;;;5.25;3.10;;;;;;;;;;5018800;28;20219;-82
2023/05/28 13:38:37;;;;;;;7.05;3.47;;;;;;;;;;5009229;28;20220;-82
2023/05/28 13:41:03;;;;;;;4.53;3.38;;;;;;;;;;4996535;28;20225;-81
2023/05/28 13:43:32;;;;;;;3.55;3.15;;;;;;;;;;4999448;28;20765;-81
2023/05/28 13:45:59;;;;;;;3.85;3.30;;;;;;;;;;4997489;28;21071;-81
2023/05/28 13:48:25;;;;;;;5.28;3.42;;;;;;;;;;5016882;28;20323;-79
2023/05/28 13:50:50;;;;;;;4.72;3.15;;;;;;;;;;5018184;28;20216;-79
2023/05/28 13:53:16;;;;;;;6.53;3.05;;;;;;;;;;5006190;28;20220;-82
2023/05/28 13:55:46;;;;;;;6.13;3.00;;;;;;;;;;4989273;28;20208;-79
2023/05/28 13:58:14;;;;;;;4.43;3.10;;;;;;;;;;5017162;28;20242;-81
2023/05/28 14:00:39;;;;;;;3.95;3.40;;;;;;;;;;5003421;28;20212;-80
2023/05/28 14:03:05;;;;;;;4.05;3.00;;;;;;;;;;5020001;28;20647;-82
2023/05/28 14:05:33;;;;;;;5.45;3.08;;;;;;;;;;5011639;28;20236;-82
2023/05/28 14:07:58;;;;;;;4.72;2.95;;;;;;;;;;5035352;28;20294;-81
2023/05/28 14:10:26;;;;;;;4.50;3.17;;;;;;;;;;5017776;28;20219;-81
2023/05/28 14:12:52;;;;;;;4.35;3.20;;;;;;;;;;5006929;28;20273;-81
2023/05/28 14:15:17;;;;;;;4.20;3.05;;;;;;;;;;5016589;28;20239;-82
2023/05/28 14:17:43;;;;;;;4.57;3.20;;;;;;;;;;5018321;28;20224;-80
2023/05/28 14:20:11;;;;;;;5.15;3.20;;;;;;;;;;4998370;28;20217;-81
2023/05/28 14:22:37;;;;;;;4.13;2.92;;;;;;;;;;5000655;28;20673;-80
2023/05/28 14:25:03;;;;;;;5.88;3.28;;;;;;;;;;5003072;28;20222;-81
2023/05/28 14:27:28;;;;;;;5.25;3.30;;;;;;;;;;5016188;28;20661;-81
2023/05/28 14:29:54;;;;;;;3.25;2.90;;;;;;;;;;5001292;28;20220;-81
2023/05/28 14:32:22;;;;;;;6.07;2.90;;;;;;;;;;5012705;28;20217;-81
2023/05/28 14:34:48;;;;;;;6.15;3.40;;;;;;;;;;5003199;28;20233;-79
2023/05/28 14:37:24;;;;;;;5.00;3.38;;;;;;;;;;5014150;28;20221;-80
2023/05/28 14:39:49;;;;;;;4.88;3.00;;;;;;;;;;5032255;28;20227;-81
2023/05/28 14:42:15;;;;;;;4.47;3.00;;;;;;;;;;4996375;28;20248;-81
2023/05/28 14:44:40;;;;;;;4.75;2.78;;;;;;;;;;5004807;28;20220;-80
2023/05/28 14:47:12;;;;;;;3.10;2.70;;;;;;;;;;4992620;28;20213;-81
2023/05/28 14:49:37;;;;;;;4.35;3.40;;;;;;;;;;5028903;28;20228;-80
2023/05/28 14:52:22;;;;;;;4.93;3.00;;;;;;;;;;5013612;28;20229;-78
2023/05/28 14:54:51;;;;;;;4.82;3.10;;;;;;;;;;5041893;28;20238;-81